sensor_id;sensor_type;location;lat;lon;timestamp;temperature;humidity
65058;HTU21D;51644;51.068;5.860;2024-01-10T00:00:00;-4.04;66.06
65058;HTU21D;51644;51.068;5.860;2024-01-10T00:01:01;-4.06;66.11
65058;HTU21D;51644;51.068;5.860;2024-01-10T00:02:00;-4.06;66.11
65058;HTU21D;51644;51.068;5.860;2024-01-10T00:02:58;-4.05;66.16
65058;HTU21D;51644;51.068;5.860;2024-01-10T00:03:57;-4.05;66.01
65058;HTU21D;51644;51.068;5.860;2024-01-10T00:04:56;-4.04;66.01
65058;HTU21D;51644;51.068;5.860;2024-01-10T00:05:56;-4.02;65.93
65058;HTU21D;51644;51.068;5.860;2024-01-10T00:06:55;-4.06;66.04
65058;HTU21D;51644;51.068;5.860;2024-01-10T00:07:54;-4.07;66.06
65058;HTU21D;51644;51.068;5.860;2024-01-10T00:08:53;-4.08;66.07
65058;HTU21D;51644;51.068;5.860;2024-01-10T00:09:51;-4.06;66.07
65058;HTU21D;51644;51.068;5.860;2024-01-10T00:10:52;-4.07;66.17
65058;HTU21D;51644;51.068;5.860;2024-01-10T00:11:52;-4.09;66.23
65058;HTU21D;51644;51.068;5.860;2024-01-10T00:12:51;-4.09;66.19
65058;HTU21D;51644;51.068;5.860;2024-01-10T00:13:50;-4.07;66.17
65058;HTU21D;51644;51.068;5.860;2024-01-10T00:14:48;-4.08;66.14
65058;HTU21D;51644;51.068;5.860;2024-01-10T00:15:48;-4.08;66.15
65058;HTU21D;51644;51.068;5.860;2024-01-10T00:16:47;-4.09;66.26
65058;HTU21D;51644;51.068;5.860;2024-01-10T00:17:47;-4.10;66.32
65058;HTU21D;51644;51.068;5.860;2024-01-10T00:18:45;-4.11;66.36
65058;HTU21D;51644;51.068;5.860;2024-01-10T00:19:44;-4.12;66.40
65058;HTU21D;51644;51.068;5.860;2024-01-10T00:20:43;-4.10;66.33
65058;HTU21D;51644;51.068;5.860;2024-01-10T00:21:41;-4.11;66.36
65058;HTU21D;51644;51.068;5.860;2024-01-10T00:22:40;-4.11;66.40
65058;HTU21D;51644;51.068;5.860;2024-01-10T00:23:39;-4.10;66.36
65058;HTU21D;51644;51.068;5.860;2024-01-10T00:24:37;-4.11;66.36
65058;HTU21D;51644;51.068;5.860;2024-01-10T00:25:36;-4.12;66.33
65058;HTU21D;51644;51.068;5.860;2024-01-10T00:26:35;-4.13;66.41
65058;HTU21D;51644;51.068;5.860;2024-01-10T00:27:34;-4.12;66.44
65058;HTU21D;51644;51.068;5.860;2024-01-10T00:28:32;-4.15;66.49
65058;HTU21D;51644;51.068;5.860;2024-01-10T00:29:31;-4.16;66.50
65058;HTU21D;51644;51.068;5.860;2024-01-10T00:30:39;-4.15;66.56
65058;HTU21D;51644;51.068;5.860;2024-01-10T00:31:39;-4.16;66.62
65058;HTU21D;51644;51.068;5.860;2024-01-10T00:32:38;-4.19;66.75
65058;HTU21D;51644;51.068;5.860;2024-01-10T00:33:36;-4.21;66.69
65058;HTU21D;51644;51.068;5.860;2024-01-10T00:34:35;-4.19;66.71
65058;HTU21D;51644;51.068;5.860;2024-01-10T00:35:34;-4.20;66.66
65058;HTU21D;51644;51.068;5.860;2024-01-10T00:36:32;-4.21;66.71
65058;HTU21D;51644;51.068;5.860;2024-01-10T00:37:31;-4.23;66.83
65058;HTU21D;51644;51.068;5.860;2024-01-10T00:38:30;-4.22;66.89
65058;HTU21D;51644;51.068;5.860;2024-01-10T00:39:31;-4.22;66.88
65058;HTU21D;51644;51.068;5.860;2024-01-10T00:40:33;-4.24;66.89
65058;HTU21D;51644;51.068;5.860;2024-01-10T00:41:31;-4.24;66.93
65058;HTU21D;51644;51.068;5.860;2024-01-10T00:42:30;-4.24;66.85
65058;HTU21D;51644;51.068;5.860;2024-01-10T00:43:29;-4.23;66.85
65058;HTU21D;51644;51.068;5.860;2024-01-10T00:44:28;-4.25;66.96
65058;HTU21D;51644;51.068;5.860;2024-01-10T00:45:26;-4.25;67.04
65058;HTU21D;51644;51.068;5.860;2024-01-10T00:46:25;-4.26;67.05
65058;HTU21D;51644;51.068;5.860;2024-01-10T00:47:24;-4.27;67.10
65058;HTU21D;51644;51.068;5.860;2024-01-10T00:48:23;-4.28;67.20
65058;HTU21D;51644;51.068;5.860;2024-01-10T00:49:21;-4.28;67.23
65058;HTU21D;51644;51.068;5.860;2024-01-10T00:50:20;-4.28;67.23
65058;HTU21D;51644;51.068;5.860;2024-01-10T00:51:19;-4.29;67.17
65058;HTU21D;51644;51.068;5.860;2024-01-10T00:52:18;-4.29;67.12
65058;HTU21D;51644;51.068;5.860;2024-01-10T00:53:17;-4.28;67.09
65058;HTU21D;51644;51.068;5.860;2024-01-10T00:54:16;-4.30;67.01
65058;HTU21D;51644;51.068;5.860;2024-01-10T00:55:15;-4.28;67.00
65058;HTU21D;51644;51.068;5.860;2024-01-10T00:56:13;-4.29;67.03
65058;HTU21D;51644;51.068;5.860;2024-01-10T00:57:15;-4.30;66.97
65058;HTU21D;51644;51.068;5.860;2024-01-10T00:58:14;-4.28;66.90
65058;HTU21D;51644;51.068;5.860;2024-01-10T00:59:12;-4.29;66.90
65058;HTU21D;51644;51.068;5.860;2024-01-10T01:00:12;-4.27;66.81
65058;HTU21D;51644;51.068;5.860;2024-01-10T01:01:11;-4.27;66.79
65058;HTU21D;51644;51.068;5.860;2024-01-10T01:02:09;-4.29;66.81
65058;HTU21D;51644;51.068;5.860;2024-01-10T01:03:08;-4.29;66.86
65058;HTU21D;51644;51.068;5.860;2024-01-10T01:04:07;-4.29;66.92
65058;HTU21D;51644;51.068;5.860;2024-01-10T01:05:06;-4.30;67.02
65058;HTU21D;51644;51.068;5.860;2024-01-10T01:06:08;-4.32;67.03
65058;HTU21D;51644;51.068;5.860;2024-01-10T01:07:07;-4.30;67.10
65058;HTU21D;51644;51.068;5.860;2024-01-10T01:08:06;-4.32;67.10
65058;HTU21D;51644;51.068;5.860;2024-01-10T01:09:04;-4.32;67.14
65058;HTU21D;51644;51.068;5.860;2024-01-10T01:10:06;-4.36;67.24
65058;HTU21D;51644;51.068;5.860;2024-01-10T01:11:07;-4.35;67.27
65058;HTU21D;51644;51.068;5.860;2024-01-10T01:12:05;-4.36;67.32
65058;HTU21D;51644;51.068;5.860;2024-01-10T01:13:04;-4.37;67.36
65058;HTU21D;51644;51.068;5.860;2024-01-10T01:14:03;-4.37;67.32
65058;HTU21D;51644;51.068;5.860;2024-01-10T01:15:01;-4.37;67.37
65058;HTU21D;51644;51.068;5.860;2024-01-10T01:16:01;-4.37;67.35
65058;HTU21D;51644;51.068;5.860;2024-01-10T01:16:59;-4.37;67.24
65058;HTU21D;51644;51.068;5.860;2024-01-10T01:17:58;-4.38;67.20
65058;HTU21D;51644;51.068;5.860;2024-01-10T01:18:57;-4.38;67.11
65058;HTU21D;51644;51.068;5.860;2024-01-10T01:19:56;-4.38;67.14
65058;HTU21D;51644;51.068;5.860;2024-01-10T01:20:54;-4.38;67.20
65058;HTU21D;51644;51.068;5.860;2024-01-10T01:21:53;-4.40;67.33
65058;HTU21D;51644;51.068;5.860;2024-01-10T01:22:52;-4.41;67.43
65058;HTU21D;51644;51.068;5.860;2024-01-10T01:23:51;-4.42;67.41
65058;HTU21D;51644;51.068;5.860;2024-01-10T01:24:53;-4.42;67.48
65058;HTU21D;51644;51.068;5.860;2024-01-10T01:25:52;-4.44;67.55
65058;HTU21D;51644;51.068;5.860;2024-01-10T01:26:51;-4.43;67.52
65058;HTU21D;51644;51.068;5.860;2024-01-10T01:27:50;-4.44;67.62
65058;HTU21D;51644;51.068;5.860;2024-01-10T01:28:50;-4.45;67.72
65058;HTU21D;51644;51.068;5.860;2024-01-10T01:29:49;-4.46;67.78
65058;HTU21D;51644;51.068;5.860;2024-01-10T01:30:47;-4.48;67.78
65058;HTU21D;51644;51.068;5.860;2024-01-10T01:31:47;-4.48;67.82
65058;HTU21D;51644;51.068;5.860;2024-01-10T01:32:45;-4.48;67.96
65058;HTU21D;51644;51.068;5.860;2024-01-10T01:33:44;-4.49;67.94
65058;HTU21D;51644;51.068;5.860;2024-01-10T01:34:42;-4.50;68.00
65058;HTU21D;51644;51.068;5.860;2024-01-10T01:35:41;-4.50;68.14
65058;HTU21D;51644;51.068;5.860;2024-01-10T01:36:40;-4.53;68.26
65058;HTU21D;51644;51.068;5.860;2024-01-10T01:37:38;-4.52;68.28
65058;HTU21D;51644;51.068;5.860;2024-01-10T01:38:37;-4.53;68.27
65058;HTU21D;51644;51.068;5.860;2024-01-10T01:39:35;-4.55;68.29
65058;HTU21D;51644;51.068;5.860;2024-01-10T01:40:34;-4.54;68.32
65058;HTU21D;51644;51.068;5.860;2024-01-10T01:41:32;-4.54;68.37
65058;HTU21D;51644;51.068;5.860;2024-01-10T01:42:40;-4.54;68.44
65058;HTU21D;51644;51.068;5.860;2024-01-10T01:43:43;-4.55;68.44
65058;HTU21D;51644;51.068;5.860;2024-01-10T01:44:44;-4.57;68.38
65058;HTU21D;51644;51.068;5.860;2024-01-10T01:45:43;-4.54;68.40
65058;HTU21D;51644;51.068;5.860;2024-01-10T01:46:46;-4.56;68.44
65058;HTU21D;51644;51.068;5.860;2024-01-10T01:47:47;-4.56;68.58
65058;HTU21D;51644;51.068;5.860;2024-01-10T01:48:46;-4.56;68.56
65058;HTU21D;51644;51.068;5.860;2024-01-10T01:49:45;-4.58;68.67
65058;HTU21D;51644;51.068;5.860;2024-01-10T01:50:53;-4.58;68.75
65058;HTU21D;51644;51.068;5.860;2024-01-10T01:51:53;-4.59;68.72
65058;HTU21D;51644;51.068;5.860;2024-01-10T01:52:52;-4.58;68.65
65058;HTU21D;51644;51.068;5.860;2024-01-10T01:53:52;-4.59;68.68
65058;HTU21D;51644;51.068;5.860;2024-01-10T01:54:51;-4.59;68.72
65058;HTU21D;51644;51.068;5.860;2024-01-10T01:55:50;-4.60;68.68
65058;HTU21D;51644;51.068;5.860;2024-01-10T01:56:52;-4.60;68.76
65058;HTU21D;51644;51.068;5.860;2024-01-10T01:57:51;-4.60;68.79
65058;HTU21D;51644;51.068;5.860;2024-01-10T01:58:54;-4.64;68.79
65058;HTU21D;51644;51.068;5.860;2024-01-10T01:59:53;-4.64;68.81
65058;HTU21D;51644;51.068;5.860;2024-01-10T02:00:53;-4.65;68.83
65058;HTU21D;51644;51.068;5.860;2024-01-10T02:01:55;-4.66;68.86
65058;HTU21D;51644;51.068;5.860;2024-01-10T02:02:54;-4.67;68.84
65058;HTU21D;51644;51.068;5.860;2024-01-10T02:03:54;-4.67;68.78
65058;HTU21D;51644;51.068;5.860;2024-01-10T02:04:54;-4.68;68.82
65058;HTU21D;51644;51.068;5.860;2024-01-10T02:05:53;-4.67;68.85
65058;HTU21D;51644;51.068;5.860;2024-01-10T02:06:52;-4.67;68.81
65058;HTU21D;51644;51.068;5.860;2024-01-10T02:07:51;-4.67;68.78
65058;HTU21D;51644;51.068;5.860;2024-01-10T02:08:50;-4.66;68.75
65058;HTU21D;51644;51.068;5.860;2024-01-10T02:09:51;-4.67;68.74
65058;HTU21D;51644;51.068;5.860;2024-01-10T02:10:50;-4.67;68.76
65058;HTU21D;51644;51.068;5.860;2024-01-10T02:11:49;-4.67;68.78
65058;HTU21D;51644;51.068;5.860;2024-01-10T02:12:48;-4.68;68.78
65058;HTU21D;51644;51.068;5.860;2024-01-10T02:13:47;-4.66;68.82
65058;HTU21D;51644;51.068;5.860;2024-01-10T02:14:46;-4.67;68.66
65058;HTU21D;51644;51.068;5.860;2024-01-10T02:15:44;-4.66;68.66
65058;HTU21D;51644;51.068;5.860;2024-01-10T02:16:43;-4.66;68.72
65058;HTU21D;51644;51.068;5.860;2024-01-10T02:17:42;-4.65;68.75
65058;HTU21D;51644;51.068;5.860;2024-01-10T02:18:40;-4.66;68.82
65058;HTU21D;51644;51.068;5.860;2024-01-10T02:19:39;-4.68;68.93
65058;HTU21D;51644;51.068;5.860;2024-01-10T02:20:38;-4.68;69.02
65058;HTU21D;51644;51.068;5.860;2024-01-10T02:21:37;-4.69;69.11
65058;HTU21D;51644;51.068;5.860;2024-01-10T02:22:36;-4.68;69.16
65058;HTU21D;51644;51.068;5.860;2024-01-10T02:23:34;-4.69;69.03
65058;HTU21D;51644;51.068;5.860;2024-01-10T02:24:33;-4.70;69.02
65058;HTU21D;51644;51.068;5.860;2024-01-10T02:25:31;-4.70;68.98
65058;HTU21D;51644;51.068;5.860;2024-01-10T02:26:30;-4.71;69.08
65058;HTU21D;51644;51.068;5.860;2024-01-10T02:27:29;-4.72;69.18
65058;HTU21D;51644;51.068;5.860;2024-01-10T02:28:27;-4.73;69.29
65058;HTU21D;51644;51.068;5.860;2024-01-10T02:29:26;-4.74;69.38
65058;HTU21D;51644;51.068;5.860;2024-01-10T02:30:24;-4.74;69.39
65058;HTU21D;51644;51.068;5.860;2024-01-10T02:31:23;-4.74;69.43
65058;HTU21D;51644;51.068;5.860;2024-01-10T02:32:22;-4.74;69.46
65058;HTU21D;51644;51.068;5.860;2024-01-10T02:33:21;-4.76;69.49
65058;HTU21D;51644;51.068;5.860;2024-01-10T02:34:20;-4.76;69.46
65058;HTU21D;51644;51.068;5.860;2024-01-10T02:35:19;-4.75;69.46
65058;HTU21D;51644;51.068;5.860;2024-01-10T02:36:17;-4.76;69.47
65058;HTU21D;51644;51.068;5.860;2024-01-10T02:37:16;-4.76;69.58
65058;HTU21D;51644;51.068;5.860;2024-01-10T02:38:14;-4.78;69.57
65058;HTU21D;51644;51.068;5.860;2024-01-10T02:39:13;-4.78;69.62
65058;HTU21D;51644;51.068;5.860;2024-01-10T02:40:12;-4.79;69.57
65058;HTU21D;51644;51.068;5.860;2024-01-10T02:41:10;-4.79;69.66
65058;HTU21D;51644;51.068;5.860;2024-01-10T02:42:09;-4.79;69.78
65058;HTU21D;51644;51.068;5.860;2024-01-10T02:43:08;-4.81;69.94
65058;HTU21D;51644;51.068;5.860;2024-01-10T02:44:08;-4.81;70.16
65058;HTU21D;51644;51.068;5.860;2024-01-10T02:45:06;-4.81;70.19
65058;HTU21D;51644;51.068;5.860;2024-01-10T02:46:05;-4.81;70.07
65058;HTU21D;51644;51.068;5.860;2024-01-10T02:47:05;-4.80;70.12
65058;HTU21D;51644;51.068;5.860;2024-01-10T02:48:04;-4.81;70.19
65058;HTU21D;51644;51.068;5.860;2024-01-10T02:49:02;-4.82;70.26
65058;HTU21D;51644;51.068;5.860;2024-01-10T02:50:01;-4.82;70.33
65058;HTU21D;51644;51.068;5.860;2024-01-10T02:51:00;-4.82;70.41
65058;HTU21D;51644;51.068;5.860;2024-01-10T02:51:59;-4.82;70.52
65058;HTU21D;51644;51.068;5.860;2024-01-10T02:52:58;-4.83;70.48
65058;HTU21D;51644;51.068;5.860;2024-01-10T02:53:56;-4.82;70.38
65058;HTU21D;51644;51.068;5.860;2024-01-10T02:54:55;-4.79;70.17
65058;HTU21D;51644;51.068;5.860;2024-01-10T02:55:54;-4.82;70.10
65058;HTU21D;51644;51.068;5.860;2024-01-10T02:56:53;-4.82;70.07
65058;HTU21D;51644;51.068;5.860;2024-01-10T02:57:51;-4.82;69.98
65058;HTU21D;51644;51.068;5.860;2024-01-10T02:58:50;-4.82;69.95
65058;HTU21D;51644;51.068;5.860;2024-01-10T02:59:49;-4.83;70.06
65058;HTU21D;51644;51.068;5.860;2024-01-10T03:00:48;-4.83;70.13
65058;HTU21D;51644;51.068;5.860;2024-01-10T03:01:46;-4.83;70.18
65058;HTU21D;51644;51.068;5.860;2024-01-10T03:02:45;-4.84;70.22
65058;HTU21D;51644;51.068;5.860;2024-01-10T03:03:43;-4.84;70.13
65058;HTU21D;51644;51.068;5.860;2024-01-10T03:04:43;-4.84;70.03
65058;HTU21D;51644;51.068;5.860;2024-01-10T03:05:42;-4.83;69.84
65058;HTU21D;51644;51.068;5.860;2024-01-10T03:06:41;-4.83;69.75
65058;HTU21D;51644;51.068;5.860;2024-01-10T03:07:40;-4.85;69.76
65058;HTU21D;51644;51.068;5.860;2024-01-10T03:08:38;-4.84;69.71
65058;HTU21D;51644;51.068;5.860;2024-01-10T03:09:37;-4.84;69.73
65058;HTU21D;51644;51.068;5.860;2024-01-10T03:10:36;-4.84;69.78
65058;HTU21D;51644;51.068;5.860;2024-01-10T03:11:34;-4.85;69.75
65058;HTU21D;51644;51.068;5.860;2024-01-10T03:12:37;-4.85;69.81
65058;HTU21D;51644;51.068;5.860;2024-01-10T03:13:36;-4.86;69.95
65058;HTU21D;51644;51.068;5.860;2024-01-10T03:14:36;-4.87;70.00
65058;HTU21D;51644;51.068;5.860;2024-01-10T03:15:34;-4.87;69.99
65058;HTU21D;51644;51.068;5.860;2024-01-10T03:16:33;-4.88;69.95
65058;HTU21D;51644;51.068;5.860;2024-01-10T03:17:31;-4.88;69.97
65058;HTU21D;51644;51.068;5.860;2024-01-10T03:18:32;-4.89;69.97
65058;HTU21D;51644;51.068;5.860;2024-01-10T03:19:30;-4.91;69.94
65058;HTU21D;51644;51.068;5.860;2024-01-10T03:20:29;-4.93;69.87
65058;HTU21D;51644;51.068;5.860;2024-01-10T03:21:28;-4.91;69.84
65058;HTU21D;51644;51.068;5.860;2024-01-10T03:22:26;-4.93;69.86
65058;HTU21D;51644;51.068;5.860;2024-01-10T03:23:25;-4.91;69.93
65058;HTU21D;51644;51.068;5.860;2024-01-10T03:24:25;-4.94;70.00
65058;HTU21D;51644;51.068;5.860;2024-01-10T03:25:25;-4.94;69.99
65058;HTU21D;51644;51.068;5.860;2024-01-10T03:26:25;-4.93;69.95
65058;HTU21D;51644;51.068;5.860;2024-01-10T03:27:23;-4.94;69.97
65058;HTU21D;51644;51.068;5.860;2024-01-10T03:28:22;-4.95;69.97
65058;HTU21D;51644;51.068;5.860;2024-01-10T03:29:21;-4.95;70.00
65058;HTU21D;51644;51.068;5.860;2024-01-10T03:30:20;-4.96;69.99
65058;HTU21D;51644;51.068;5.860;2024-01-10T03:31:19;-4.96;70.00
65058;HTU21D;51644;51.068;5.860;2024-01-10T03:32:18;-4.97;70.00
65058;HTU21D;51644;51.068;5.860;2024-01-10T03:33:17;-4.98;70.03
65058;HTU21D;51644;51.068;5.860;2024-01-10T03:34:18;-4.98;69.99
65058;HTU21D;51644;51.068;5.860;2024-01-10T03:35:17;-4.97;70.06
65058;HTU21D;51644;51.068;5.860;2024-01-10T03:36:17;-5.00;70.19
65058;HTU21D;51644;51.068;5.860;2024-01-10T03:37:16;-5.01;70.23
65058;HTU21D;51644;51.068;5.860;2024-01-10T03:38:15;-5.01;70.22
65058;HTU21D;51644;51.068;5.860;2024-01-10T03:39:14;-5.00;70.17
65058;HTU21D;51644;51.068;5.860;2024-01-10T03:40:13;-5.01;70.17
65058;HTU21D;51644;51.068;5.860;2024-01-10T03:41:15;-5.00;70.22
65058;HTU21D;51644;51.068;5.860;2024-01-10T03:42:14;-5.02;70.24
65058;HTU21D;51644;51.068;5.860;2024-01-10T03:43:14;-5.02;70.30
65058;HTU21D;51644;51.068;5.860;2024-01-10T03:44:12;-5.03;70.32
65058;HTU21D;51644;51.068;5.860;2024-01-10T03:45:11;-5.03;70.35
65058;HTU21D;51644;51.068;5.860;2024-01-10T03:46:10;-5.05;70.44
65058;HTU21D;51644;51.068;5.860;2024-01-10T03:47:09;-5.07;70.48
65058;HTU21D;51644;51.068;5.860;2024-01-10T03:48:07;-5.05;70.38
65058;HTU21D;51644;51.068;5.860;2024-01-10T03:49:06;-5.07;70.31
65058;HTU21D;51644;51.068;5.860;2024-01-10T03:50:05;-5.09;70.35
65058;HTU21D;51644;51.068;5.860;2024-01-10T03:51:05;-5.09;70.45
65058;HTU21D;51644;51.068;5.860;2024-01-10T03:52:04;-5.09;70.53
65058;HTU21D;51644;51.068;5.860;2024-01-10T03:53:02;-5.10;70.59
65058;HTU21D;51644;51.068;5.860;2024-01-10T03:54:01;-5.09;70.71
65058;HTU21D;51644;51.068;5.860;2024-01-10T03:55:00;-5.12;70.82
65058;HTU21D;51644;51.068;5.860;2024-01-10T03:55:58;-5.12;70.91
65058;HTU21D;51644;51.068;5.860;2024-01-10T03:56:57;-5.12;70.87
65058;HTU21D;51644;51.068;5.860;2024-01-10T03:57:56;-5.12;70.87
65058;HTU21D;51644;51.068;5.860;2024-01-10T03:58:55;-5.14;70.90
65058;HTU21D;51644;51.068;5.860;2024-01-10T03:59:53;-5.13;70.87
65058;HTU21D;51644;51.068;5.860;2024-01-10T04:00:52;-5.14;70.91
65058;HTU21D;51644;51.068;5.860;2024-01-10T04:01:51;-5.12;70.87
65058;HTU21D;51644;51.068;5.860;2024-01-10T04:02:50;-5.12;70.86
65058;HTU21D;51644;51.068;5.860;2024-01-10T04:03:48;-5.11;70.68
65058;HTU21D;51644;51.068;5.860;2024-01-10T04:04:47;-5.11;70.55
65058;HTU21D;51644;51.068;5.860;2024-01-10T04:05:45;-5.11;70.40
65058;HTU21D;51644;51.068;5.860;2024-01-10T04:06:44;-5.11;70.30
65058;HTU21D;51644;51.068;5.860;2024-01-10T04:07:43;-5.10;70.20
65058;HTU21D;51644;51.068;5.860;2024-01-10T04:08:41;-5.12;70.14
65058;HTU21D;51644;51.068;5.860;2024-01-10T04:09:40;-5.11;70.03
65058;HTU21D;51644;51.068;5.860;2024-01-10T04:10:39;-5.11;69.97
65058;HTU21D;51644;51.068;5.860;2024-01-10T04:11:38;-5.11;69.93
65058;HTU21D;51644;51.068;5.860;2024-01-10T04:12:36;-5.11;69.96
65058;HTU21D;51644;51.068;5.860;2024-01-10T04:13:38;-5.12;69.90
65058;HTU21D;51644;51.068;5.860;2024-01-10T04:14:37;-5.12;69.90
65058;HTU21D;51644;51.068;5.860;2024-01-10T04:15:35;-5.12;69.75
65058;HTU21D;51644;51.068;5.860;2024-01-10T04:16:34;-5.14;69.74
65058;HTU21D;51644;51.068;5.860;2024-01-10T04:17:32;-5.15;69.75
65058;HTU21D;51644;51.068;5.860;2024-01-10T04:18:31;-5.13;69.71
65058;HTU21D;51644;51.068;5.860;2024-01-10T04:19:29;-5.13;69.53
65058;HTU21D;51644;51.068;5.860;2024-01-10T04:20:28;-5.13;69.48
65058;HTU21D;51644;51.068;5.860;2024-01-10T04:21:27;-5.14;69.52
65058;HTU21D;51644;51.068;5.860;2024-01-10T04:22:25;-5.14;69.52
65058;HTU21D;51644;51.068;5.860;2024-01-10T04:23:24;-5.10;69.32
65058;HTU21D;51644;51.068;5.860;2024-01-10T04:24:23;-5.13;69.19
65058;HTU21D;51644;51.068;5.860;2024-01-10T04:25:22;-5.11;69.08
65058;HTU21D;51644;51.068;5.860;2024-01-10T04:26:20;-5.12;69.10
65058;HTU21D;51644;51.068;5.860;2024-01-10T04:27:19;-5.13;69.09
65058;HTU21D;51644;51.068;5.860;2024-01-10T04:28:18;-5.15;69.12
65058;HTU21D;51644;51.068;5.860;2024-01-10T04:29:17;-5.14;69.15
65058;HTU21D;51644;51.068;5.860;2024-01-10T04:30:16;-5.12;68.95
65058;HTU21D;51644;51.068;5.860;2024-01-10T04:31:14;-5.13;68.84
65058;HTU21D;51644;51.068;5.860;2024-01-10T04:32:13;-5.15;68.90
65058;HTU21D;51644;51.068;5.860;2024-01-10T04:33:12;-5.16;68.97
65058;HTU21D;51644;51.068;5.860;2024-01-10T04:34:10;-5.14;68.87
65058;HTU21D;51644;51.068;5.860;2024-01-10T04:35:09;-5.16;68.91
65058;HTU21D;51644;51.068;5.860;2024-01-10T04:36:08;-5.15;69.00
65058;HTU21D;51644;51.068;5.860;2024-01-10T04:37:07;-5.16;69.04
65058;HTU21D;51644;51.068;5.860;2024-01-10T04:38:05;-5.15;68.95
65058;HTU21D;51644;51.068;5.860;2024-01-10T04:39:04;-5.15;68.91
65058;HTU21D;51644;51.068;5.860;2024-01-10T04:40:03;-5.15;68.89
65058;HTU21D;51644;51.068;5.860;2024-01-10T04:41:02;-5.16;68.87
65058;HTU21D;51644;51.068;5.860;2024-01-10T04:42:02;-5.16;68.87
65058;HTU21D;51644;51.068;5.860;2024-01-10T04:43:00;-5.16;68.89
65058;HTU21D;51644;51.068;5.860;2024-01-10T04:43:59;-5.16;68.79
65058;HTU21D;51644;51.068;5.860;2024-01-10T04:44:58;-5.16;68.76
65058;HTU21D;51644;51.068;5.860;2024-01-10T04:45:56;-5.16;68.80
65058;HTU21D;51644;51.068;5.860;2024-01-10T04:46:55;-5.16;68.80
65058;HTU21D;51644;51.068;5.860;2024-01-10T04:47:53;-5.18;68.82
65058;HTU21D;51644;51.068;5.860;2024-01-10T04:48:52;-5.17;68.81
65058;HTU21D;51644;51.068;5.860;2024-01-10T04:49:51;-5.17;68.79
65058;HTU21D;51644;51.068;5.860;2024-01-10T04:50:49;-5.18;68.83
65058;HTU21D;51644;51.068;5.860;2024-01-10T04:51:49;-5.18;68.87
65058;HTU21D;51644;51.068;5.860;2024-01-10T04:52:48;-5.17;68.96
65058;HTU21D;51644;51.068;5.860;2024-01-10T04:53:46;-5.17;68.97
65058;HTU21D;51644;51.068;5.860;2024-01-10T04:54:45;-5.17;68.97
65058;HTU21D;51644;51.068;5.860;2024-01-10T04:55:44;-5.17;69.00
65058;HTU21D;51644;51.068;5.860;2024-01-10T04:56:42;-5.18;69.08
65058;HTU21D;51644;51.068;5.860;2024-01-10T04:57:41;-5.18;69.08
65058;HTU21D;51644;51.068;5.860;2024-01-10T04:58:40;-5.18;69.07
65058;HTU21D;51644;51.068;5.860;2024-01-10T04:59:39;-5.18;69.16
65058;HTU21D;51644;51.068;5.860;2024-01-10T05:00:37;-5.19;69.28
65058;HTU21D;51644;51.068;5.860;2024-01-10T05:01:36;-5.20;69.23
65058;HTU21D;51644;51.068;5.860;2024-01-10T05:02:36;-5.20;69.16
65058;HTU21D;51644;51.068;5.860;2024-01-10T05:03:34;-5.22;69.10
65058;HTU21D;51644;51.068;5.860;2024-01-10T05:04:33;-5.20;69.04
65058;HTU21D;51644;51.068;5.860;2024-01-10T05:05:31;-5.20;69.11
65058;HTU21D;51644;51.068;5.860;2024-01-10T05:06:30;-5.22;69.12
65058;HTU21D;51644;51.068;5.860;2024-01-10T05:07:29;-5.22;69.19
65058;HTU21D;51644;51.068;5.860;2024-01-10T05:08:27;-5.23;69.28
65058;HTU21D;51644;51.068;5.860;2024-01-10T05:09:26;-5.25;69.29
65058;HTU21D;51644;51.068;5.860;2024-01-10T05:10:24;-5.25;69.31
65058;HTU21D;51644;51.068;5.860;2024-01-10T05:11:24;-5.26;69.39
65058;HTU21D;51644;51.068;5.860;2024-01-10T05:12:26;-5.27;69.49
65058;HTU21D;51644;51.068;5.860;2024-01-10T05:13:25;-5.27;69.55
65058;HTU21D;51644;51.068;5.860;2024-01-10T05:14:23;-5.27;69.55
65058;HTU21D;51644;51.068;5.860;2024-01-10T05:15:22;-5.28;69.48
65058;HTU21D;51644;51.068;5.860;2024-01-10T05:16:21;-5.27;69.41
65058;HTU21D;51644;51.068;5.860;2024-01-10T05:17:20;-5.28;69.39
65058;HTU21D;51644;51.068;5.860;2024-01-10T05:18:18;-5.28;69.39
65058;HTU21D;51644;51.068;5.860;2024-01-10T05:19:17;-5.28;69.39
65058;HTU21D;51644;51.068;5.860;2024-01-10T05:20:15;-5.27;69.32
65058;HTU21D;51644;51.068;5.860;2024-01-10T05:21:14;-5.27;69.30
65058;HTU21D;51644;51.068;5.860;2024-01-10T05:22:13;-5.27;69.25
65058;HTU21D;51644;51.068;5.860;2024-01-10T05:23:12;-5.28;69.23
65058;HTU21D;51644;51.068;5.860;2024-01-10T05:24:11;-5.28;69.26
65058;HTU21D;51644;51.068;5.860;2024-01-10T05:25:11;-5.28;69.32
65058;HTU21D;51644;51.068;5.860;2024-01-10T05:26:09;-5.29;69.38
65058;HTU21D;51644;51.068;5.860;2024-01-10T05:27:08;-5.29;69.43
65058;HTU21D;51644;51.068;5.860;2024-01-10T05:28:07;-5.27;69.42
65058;HTU21D;51644;51.068;5.860;2024-01-10T05:29:08;-5.28;69.39
65058;HTU21D;51644;51.068;5.860;2024-01-10T05:30:07;-5.27;69.36
65058;HTU21D;51644;51.068;5.860;2024-01-10T05:31:06;-5.27;69.33
65058;HTU21D;51644;51.068;5.860;2024-01-10T05:32:05;-5.28;69.35
65058;HTU21D;51644;51.068;5.860;2024-01-10T05:33:04;-5.28;69.36
65058;HTU21D;51644;51.068;5.860;2024-01-10T05:34:03;-5.29;69.42
65058;HTU21D;51644;51.068;5.860;2024-01-10T05:35:03;-5.30;69.52
65058;HTU21D;51644;51.068;5.860;2024-01-10T05:36:03;-5.30;69.52
65058;HTU21D;51644;51.068;5.860;2024-01-10T05:37:02;-5.30;69.52
65058;HTU21D;51644;51.068;5.860;2024-01-10T05:38:03;-5.31;69.71
65058;HTU21D;51644;51.068;5.860;2024-01-10T05:39:02;-5.32;69.88
65058;HTU21D;51644;51.068;5.860;2024-01-10T05:40:00;-5.33;70.06
65058;HTU21D;51644;51.068;5.860;2024-01-10T05:40:59;-5.35;70.26
65058;HTU21D;51644;51.068;5.860;2024-01-10T05:41:58;-5.37;70.41
65058;HTU21D;51644;51.068;5.860;2024-01-10T05:42:56;-5.37;70.49
65058;HTU21D;51644;51.068;5.860;2024-01-10T05:43:55;-5.39;70.52
65058;HTU21D;51644;51.068;5.860;2024-01-10T05:44:54;-5.41;70.58
65058;HTU21D;51644;51.068;5.860;2024-01-10T05:45:52;-5.39;70.67
65058;HTU21D;51644;51.068;5.860;2024-01-10T05:46:51;-5.40;70.71
65058;HTU21D;51644;51.068;5.860;2024-01-10T05:47:50;-5.40;70.84
65058;HTU21D;51644;51.068;5.860;2024-01-10T05:48:48;-5.39;70.90
65058;HTU21D;51644;51.068;5.860;2024-01-10T05:49:47;-5.39;70.88
65058;HTU21D;51644;51.068;5.860;2024-01-10T05:50:45;-5.38;70.87
65058;HTU21D;51644;51.068;5.860;2024-01-10T05:51:44;-5.39;70.88
65058;HTU21D;51644;51.068;5.860;2024-01-10T05:52:43;-5.37;70.90
65058;HTU21D;51644;51.068;5.860;2024-01-10T05:53:42;-5.35;70.87
65058;HTU21D;51644;51.068;5.860;2024-01-10T05:54:40;-5.33;70.77
65058;HTU21D;51644;51.068;5.860;2024-01-10T05:55:39;-5.34;70.68
65058;HTU21D;51644;51.068;5.860;2024-01-10T05:56:38;-5.32;70.64
65058;HTU21D;51644;51.068;5.860;2024-01-10T05:57:37;-5.33;70.62
65058;HTU21D;51644;51.068;5.860;2024-01-10T05:58:35;-5.32;70.61
65058;HTU21D;51644;51.068;5.860;2024-01-10T05:59:34;-5.32;70.58
65058;HTU21D;51644;51.068;5.860;2024-01-10T06:00:33;-5.33;70.55
65058;HTU21D;51644;51.068;5.860;2024-01-10T06:01:32;-5.32;70.52
65058;HTU21D;51644;51.068;5.860;2024-01-10T06:02:31;-5.32;70.46
65058;HTU21D;51644;51.068;5.860;2024-01-10T06:03:29;-5.33;70.47
65058;HTU21D;51644;51.068;5.860;2024-01-10T06:04:28;-5.32;70.47
65058;HTU21D;51644;51.068;5.860;2024-01-10T06:05:28;-5.32;70.49
65058;HTU21D;51644;51.068;5.860;2024-01-10T06:06:27;-5.32;70.51